Time;durP1;ratioP1;P1;durP2;ratioP2;P2;SDS_P1;SDS_P2;PMS_P1;PMS_P2;Temp;Humidity;BMP_temperature;BMP_pressure;BME280_temperature;BME280_humidity;BME280_pressure;Samples;Min_cycle;Max_cycle;Signal;HPM_P1;HPM_P2
2023/01/15 00:07:03;;;;;;;1.60;0.50;;;;;;;16.44;67.51;99198.06;20249492;29;20052;-87
2023/01/15 00:17:04;;;;;;;2.40;0.60;;;;;;;16.36;67.00;99191.69;20249323;29;20456;-88
2023/01/15 00:37:29;;;;;;;1.80;0.60;;;;;;;16.42;66.51;99205.44;20230765;29;20056;-87
2023/01/15 00:47:31;;;;;;;1.95;0.68;;;;;;;16.33;66.35;99207.28;20229955;29;20059;-87
2023/01/15 00:57:33;;;;;;;1.25;0.60;;;;;;;16.43;65.62;99220.53;20213061;29;20052;-87
2023/01/15 01:07:35;;;;;;;1.95;0.77;;;;;;;16.30;65.61;99211.13;20229507;29;20089;-87
2023/01/15 01:17:37;;;;;;;1.20;0.63;;;;;;;15.97;65.54;99135.97;20228107;29;20147;-88
2023/01/15 01:27:39;;;;;;;1.40;0.68;;;;;;;16.40;65.34;99220.88;20227453;29;20059;-88
2023/01/15 01:37:40;;;;;;;3.15;0.90;;;;;;;16.38;65.16;99197.72;20243492;29;20033;-88
2023/01/15 01:47:42;;;;;;;2.00;0.60;;;;;;;16.21;64.70;99182.59;20226506;29;20060;-87
2023/01/15 01:57:46;;;;;;;2.65;0.82;;;;;;;16.31;64.96;99212.81;20240982;29;20057;-88
2023/01/15 02:07:47;;;;;;;1.95;0.80;;;;;;;16.37;64.57;99228.28;20208735;29;20056;-87
2023/01/15 02:17:58;;;;;;;1.83;0.70;;;;;;;16.37;64.22;99216.69;20240545;29;20044;-88
2023/01/15 02:28:09;;;;;;;2.08;0.70;;;;;;;16.27;64.27;99203.41;20193175;29;20048;-88
2023/01/15 02:38:16;;;;;;;2.17;0.70;;;;;;;16.35;63.86;99205.25;20222444;29;20059;-88
2023/01/15 02:48:25;;;;;;;1.40;0.60;;;;;;;16.35;64.10;99194.53;20207373;29;20052;-88
2023/01/15 02:58:31;;;;;;;1.65;0.80;;;;;;;16.34;63.95;99190.97;20205361;29;20412;-87
2023/01/15 03:08:34;;;;;;;2.63;0.85;;;;;;;16.34;63.88;99195.53;20219981;29;20047;-88
2023/01/15 03:18:47;;;;;;;1.73;0.80;;;;;;;16.07;63.39;99149.19;20220346;29;20093;-87
2023/01/15 03:28:49;;;;;;;2.70;0.77;;;;;;;16.31;63.51;99188.63;20219231;29;20119;-88
2023/01/15 03:38:52;;;;;;;2.45;1.02;;;;;;;16.30;63.27;99184.28;20203084;29;20062;-88
2023/01/15 03:49:35;;;;;;;3.13;1.27;;;;;;;16.30;63.20;99168.16;20205638;29;20051;-88
2023/01/15 03:59:51;;;;;;;2.53;1.00;;;;;;;16.29;62.67;99158.41;20234581;29;20064;-88
2023/01/15 04:09:53;;;;;;;1.23;0.70;;;;;;;16.29;62.42;99147.69;20202230;29;20048;-87
2023/01/15 04:19:57;;;;;;;2.80;0.73;;;;;;;15.98;62.63;99109.94;20216997;29;20048;-88
2023/01/15 04:29:59;;;;;;;2.80;1.10;;;;;;;16.29;62.52;99165.66;20230363;29;20151;-87
2023/01/15 04:40:03;;;;;;;2.63;0.85;;;;;;;16.27;62.50;99160.44;20247083;29;20056;-88
2023/01/15 04:50:05;;;;;;;2.60;0.70;;;;;;;16.08;62.48;99122.19;20230388;29;20179;-88
2023/01/15 05:00:07;;;;;;;2.15;0.93;;;;;;;16.27;62.28;99140.81;20246287;29;20060;-88
2023/01/15 05:10:09;;;;;;;2.60;0.85;;;;;;;16.17;61.93;99138.28;20245021;29;20412;-87
2023/01/15 05:20:11;;;;;;;4.07;1.35;;;;;;;16.26;62.13;99141.81;20228152;29;20100;-88
2023/01/15 05:30:13;;;;;;;2.63;1.02;;;;;;;16.25;61.97;99127.53;20234245;29;20048;-88
2023/01/15 05:40:15;;;;;;;2.75;0.95;;;;;;;16.13;61.87;99112.78;20242257;29;20052;-88
2023/01/15 05:50:16;;;;;;;2.50;0.90;;;;;;;16.24;61.40;99125.88;20242501;29;20048;-88
2023/01/15 06:00:18;;;;;;;4.10;1.10;;;;;;;16.24;61.13;99117.81;20224819;29;20056;-87
2023/01/15 06:10:20;;;;;;;2.42;1.10;;;;;;;16.23;60.90;99121.50;20224167;29;20089;-88
2023/01/15 06:20:21;;;;;;;3.97;1.30;;;;;;;16.21;60.78;99123.53;20239418;29;20375;-87
2023/01/15 06:30:23;;;;;;;3.10;0.85;;;;;;;16.21;60.35;99129.75;20222889;29;20057;-88
2023/01/15 06:40:28;;;;;;;3.42;0.90;;;;;;;16.21;60.32;99124.38;20221905;29;20048;-87
2023/01/15 06:50:31;;;;;;;3.08;0.82;;;;;;;16.08;59.97;99086.44;20236713;29;20112;-88
2023/01/15 07:00:34;;;;;;;3.63;0.90;;;;;;;16.04;59.89;99085.97;20236944;29;20053;-87
2023/01/15 07:10:35;;;;;;;2.90;1.17;;;;;;;16.00;60.05;99087.31;20236536;29;20060;-88
2023/01/15 07:20:37;;;;;;;2.42;0.98;;;;;;;16.20;59.96;99101.22;20235120;29;20052;-88
2023/01/15 07:30:38;;;;;;;2.50;0.90;;;;;;;15.98;59.95;99054.44;20235204;29;20503;-88
2023/01/15 07:40:40;;;;;;;2.78;0.85;;;;;;;16.00;59.64;99067.66;20234514;29;20052;-88
2023/01/15 07:50:41;;;;;;;3.50;0.80;;;;;;;16.06;59.46;99089.31;20234049;29;20049;-88
2023/01/15 08:00:43;;;;;;;2.75;0.88;;;;;;;16.09;59.56;99094.34;20224963;29;20160;-88
2023/01/15 08:21:04;;;;;;;2.83;0.88;;;;;;;16.17;58.94;99117.69;20222171;29;20125;-88
2023/01/15 08:31:07;;;;;;;3.15;0.80;;;;;;;16.00;59.29;99073.88;20204689;29;20116;-90
2023/01/15 08:41:08;;;;;;;2.85;0.93;;;;;;;16.19;59.75;99079.91;20216267;29;20056;-89
2023/01/15 08:51:11;;;;;;;2.95;1.05;;;;;;;16.23;61.49;99094.66;20208564;29;20052;-89
2023/01/15 09:01:15;;;;;;;3.05;1.10;;;;;;;16.26;62.01;99115.81;20213198;29;20067;-89
2023/01/15 09:11:17;;;;;;;3.07;0.87;;;;;;;16.28;62.60;99135.25;20206503;29;20910;-87
2023/01/15 09:21:19;;;;;;;5.40;1.10;;;;;;;16.29;63.56;99110.09;20214078;29;20109;-88
2023/01/15 09:31:21;;;;;;;3.92;0.85;;;;;;;16.27;62.71;99128.22;20217260;29;20407;-86
2023/01/15 09:52:02;;;;;;;2.38;0.80;;;;;;;16.24;61.63;99112.44;20193053;29;20144;-87
2023/01/15 10:02:18;;;;;;;4.18;0.68;;;;;;;16.24;62.48;99112.44;20214044;29;20546;-85
2023/01/15 10:12:37;;;;;;;1.88;0.68;;;;;;;16.22;62.52;99120.69;20172182;29;20077;-85
2023/01/15 10:22:51;;;;;;;1.45;0.50;;;;;;;16.09;62.56;99078.25;20175632;29;20049;-84
2023/01/15 10:32:57;;;;;;;1.10;0.40;;;;;;;16.04;62.78;99088.66;20180457;29;20057;-86
2023/01/15 10:43:18;;;;;;;1.75;0.70;;;;;;;16.14;62.98;99095.69;20177681;29;20109;-86
2023/01/15 10:53:26;;;;;;;1.63;0.50;;;;;;;16.20;63.06;99100.38;20189140;29;20579;-86
2023/01/15 11:03:35;;;;;;;1.75;0.50;;;;;;;15.89;63.22;99029.44;20188014;29;20829;-87
2023/01/15 11:23:59;;;;;;;2.72;1.75;;;;;;;16.11;64.03;99053.06;20187563;29;20049;-94
2023/01/15 11:34:03;;;;;;;2.72;1.70;;;;;;;16.59;67.18;99075.47;20214638;29;20071;-88
2023/01/15 11:54:31;;;;;;;2.88;1.80;;;;;;;17.05;64.56;99044.41;20203745;29;20056;-86
2023/01/15 12:04:38;;;;;;;3.28;1.73;;;;;;;16.90;64.45;99037.06;20189618;29;20519;-91
2023/01/15 12:15:04;;;;;;;2.40;1.52;;;;;;;16.87;63.99;99034.72;20227639;29;20067;-91
2023/01/15 12:25:12;;;;;;;2.15;1.30;;;;;;;16.82;64.22;99050.53;20208635;29;20064;-90
2023/01/15 12:35:30;;;;;;;2.50;1.38;;;;;;;16.73;64.44;99046.19;20213229;29;20053;-92
2023/01/15 12:45:43;;;;;;;3.80;1.50;;;;;;;16.50;64.73;98995.91;20199535;29;20504;-90
2023/01/15 12:55:55;;;;;;;2.17;1.50;;;;;;;16.54;64.92;99010.66;20206116;29;20080;-89
2023/01/15 13:05:59;;;;;;;3.25;1.40;;;;;;;16.44;65.12;99023.47;20221410;29;20061;-92
2023/01/15 13:16:18;;;;;;;3.22;1.33;;;;;;;16.45;67.37;99043.94;21427716;23;1114638;-93
2023/01/15 13:26:45;;;;;;;5.70;1.40;;;;;;;16.04;67.71;99004.59;20221182;29;20067;-94
2023/01/15 13:36:50;;;;;;;4.03;1.67;;;;;;;16.58;67.84;99087.22;20227695;29;20040;-95
2023/01/15 13:47:02;;;;;;;2.35;1.23;;;;;;;16.47;67.87;99063.41;20225946;29;20055;-93
2023/01/15 13:57:22;;;;;;;3.17;1.20;;;;;;;16.52;67.79;99061.88;20225122;29;20533;-94
2023/01/15 14:07:36;;;;;;;1.55;1.00;;;;;;;16.35;67.92;99065.63;20225558;29;20064;-93
2023/01/15 14:17:56;;;;;;;1.50;0.90;;;;;;;16.47;67.86;99170.84;20209612;29;20052;-93
2023/01/15 14:28:19;;;;;;;2.08;1.00;;;;;;;16.45;67.93;99205.09;20240390;29;20135;-94
2023/01/15 14:38:28;;;;;;;2.28;1.38;;;;;;;16.19;68.06;99153.25;20240609;29;20444;-94
2023/01/15 14:48:29;;;;;;;2.50;1.17;;;;;;;16.43;67.99;99196.38;20239571;29;20112;-93
2023/01/15 14:58:47;;;;;;;1.17;0.88;;;;;;;16.42;68.12;99202.75;20238519;29;20057;-94
2023/01/15 15:08:50;;;;;;;1.85;1.10;;;;;;;16.40;68.29;99224.41;20221867;29;20056;-93
2023/01/15 15:18:59;;;;;;;2.42;0.90;;;;;;;16.38;68.05;99248.75;20220632;29;20056;-93
2023/01/15 15:29:12;;;;;;;1.95;1.00;;;;;;;16.29;68.28;99244.34;20236708;29;20108;-93
2023/01/15 15:39:38;;;;;;;2.10;1.13;;;;;;;16.37;68.35;99263.19;20204036;29;20443;-93
2023/01/15 15:49:40;;;;;;;1.20;0.80;;;;;;;16.36;68.26;99272.25;20218983;29;20057;-93
2023/01/15 15:59:48;;;;;;;2.08;1.25;;;;;;;16.36;68.18;99277.63;20235485;29;20400;-87
2023/01/15 16:09:53;;;;;;;0.75;0.60;;;;;;;16.35;68.39;99294.75;20218859;29;20575;-93
2023/01/15 16:19:55;;;;;;;0.80;0.70;;;;;;;16.35;68.23;99313.53;20222518;29;20067;-94
2023/01/15 16:29:56;;;;;;;1.20;0.90;;;;;;;16.19;68.25;99297.38;20249450;29;20055;-94
2023/01/15 16:40:00;;;;;;;1.27;0.73;;;;;;;16.09;68.50;99292.13;20231993;29;20072;-93
2023/01/15 16:50:20;;;;;;;1.15;0.70;;;;;;;16.34;68.50;99349.44;20216971;29;20087;-93
2023/01/15 17:00:29;;;;;;;0.90;0.60;;;;;;;16.08;68.46;99311.94;20247520;29;20133;-93
2023/01/15 17:10:34;;;;;;;0.95;0.70;;;;;;;16.24;68.53;99346.06;20246691;29;20048;-94
2023/01/15 17:20:35;;;;;;;1.38;0.80;;;;;;;16.31;68.40;99371.25;20245563;29;20056;-93
2023/01/15 17:30:37;;;;;;;0.60;0.60;;;;;;;16.31;68.40;99387.34;20245447;29;20063;-93
2023/01/15 17:40:39;;;;;;;0.90;0.70;;;;;;;16.31;68.58;99397.28;20231204;29;20066;-93
2023/01/15 17:50:40;;;;;;;0.70;0.52;;;;;;;16.30;68.39;99409.84;20235917;29;20525;-95
2023/01/15 18:11:02;;;;;;;1.15;0.50;;;;;;;16.32;68.91;99425.81;20230774;29;20072;-92
2023/01/15 18:21:04;;;;;;;1.10;0.60;;;;;;;16.32;69.09;99426.63;20226805;29;20051;-92
2023/01/15 18:31:06;;;;;;;0.98;0.50;;;;;;;16.25;68.83;99409.50;20208558;29;20570;-94
2023/01/15 18:51:34;;;;;;;1.08;0.50;;;;;;;16.30;68.98;99454.66;20237790;29;20511;-87
2023/01/15 19:01:39;;;;;;;0.60;0.50;;;;;;;16.30;68.99;99460.88;20206622;29;20059;-92
2023/01/15 19:11:42;;;;;;;1.02;0.57;;;;;;;16.04;68.93;99424.19;20236991;29;20131;-92
2023/01/15 19:21:45;;;;;;;1.13;0.70;;;;;;;16.14;69.02;99439.31;20235730;29;20052;-91
2023/01/15 19:31:47;;;;;;;1.02;0.40;;;;;;;16.30;69.08;99476.16;20234653;29;20056;-92
2023/01/15 20:02:32;;;;;;;0.47;0.30;;;;;;;16.29;68.86;99464.56;20237176;29;20052;-92
2023/01/15 20:23:00;;;;;;;0.80;0.47;;;;;;;16.07;69.02;99425.69;20249247;29;20052;-93
2023/01/15 20:33:04;;;;;;;0.35;0.30;;;;;;;16.07;68.95;99412.25;20248519;29;20056;-93
2023/01/15 20:53:33;;;;;;;1.02;0.40;;;;;;;16.12;69.05;99395.69;20247537;29;20057;-92
2023/01/15 21:03:37;;;;;;;0.88;0.50;;;;;;;16.29;68.90;99405.47;20230186;29;20135;-93
2023/01/15 21:13:43;;;;;;;0.32;0.32;;;;;;;16.30;68.70;99409.03;20245033;29;20049;-92
2023/01/15 21:23:45;;;;;;;0.60;0.40;;;;;;;16.23;69.14;99396.25;20245045;29;20411;-92
2023/01/15 21:33:46;;;;;;;0.32;0.20;;;;;;;16.30;69.20;99398.28;20243566;29;20052;-92
2023/01/15 21:54:08;;;;;;;0.82;0.30;;;;;;;16.29;69.22;99384.00;20229301;29;20061;-92
2023/01/15 22:04:12;;;;;;;0.50;0.40;;;;;;;16.29;69.22;99378.63;20226354;29;20040;-91
2023/01/15 22:14:24;;;;;;;0.40;0.38;;;;;;;16.29;69.23;99372.44;20240151;29;20352;-92
2023/01/15 22:24:31;;;;;;;0.40;0.40;;;;;;;16.28;69.17;99357.31;20239768;29;20052;-92
2023/01/15 22:34:33;;;;;;;0.40;0.40;;;;;;;15.87;69.07;99282.81;20239178;29;20056;-91
2023/01/15 22:44:35;;;;;;;0.30;0.30;;;;;;;16.29;69.34;99334.84;20238504;29;20056;-92
2023/01/15 22:54:43;;;;;;;0.30;0.30;;;;;;;16.28;69.49;99325.09;20221519;29;20059;-92
2023/01/15 23:04:47;;;;;;;;;;;;;;;16.27;69.29;99302.75;20238003;29;20055;-91
2023/01/15 23:14:49;;;;;;;0.38;0.30;;;;;;;16.26;69.35;99287.66;20236634;29;19927;-93
2023/01/15 23:24:50;;;;;;;0.88;0.35;;;;;;;16.26;69.33;99271.53;20235696;29;20063;-92
2023/01/15 23:34:52;;;;;;;0.30;0.20;;;;;;;16.26;69.42;99258.13;20219191;29;20052;-93
2023/01/15 23:55:15;;;;;;;0.22;0.22;;;;;;;16.13;69.28;99207.63;20235770;29;20072;-92
